createdAt,value
2019-06-08T00:00:40.854Z,98100.00
2019-06-08T00:06:06.012Z,98136.00
2019-06-08T00:11:31.904Z,98143.00
2019-06-08T00:16:57.936Z,98145.00
2019-06-08T00:22:23.894Z,98137.00
2019-06-08T00:27:50.896Z,98142.00
2019-06-08T00:33:17.118Z,98158.00
2019-06-08T00:38:44.879Z,98144.00
2019-06-08T00:43:52.175Z,98154.00
2019-06-08T00:49:18.474Z,98167.00
2019-06-08T00:54:44.275Z,98183.00
2019-06-08T01:00:11.207Z,98199.00
2019-06-08T01:05:36.361Z,98205.00
2019-06-08T01:11:01.666Z,98201.00
2019-06-08T01:16:27.120Z,98229.00
2019-06-08T01:21:52.507Z,98250.00
2019-06-08T01:27:17.788Z,98222.00
2019-06-08T01:32:43.294Z,98218.00
2019-06-08T01:38:08.619Z,98209.00
2019-06-08T01:43:16.876Z,98253.00
2019-06-08T01:48:42.302Z,98243.00
2019-06-08T01:54:08.834Z,98248.00
2019-06-08T01:59:35.164Z,98230.00
2019-06-08T02:05:00.231Z,98248.00
2019-06-08T02:10:26.624Z,98244.00
2019-06-08T02:15:51.935Z,98237.00
2019-06-08T02:21:17.352Z,98230.00
2019-06-08T02:26:43.152Z,98232.00
2019-06-08T02:32:08.577Z,98222.00
2019-06-08T02:37:35.468Z,98237.00
2019-06-08T02:43:01.165Z,98234.00
2019-06-08T02:48:27.309Z,98213.00
2019-06-08T02:53:52.623Z,98210.00
2019-06-08T02:59:23.141Z,98230.00
2019-06-08T03:04:52.673Z,98244.00
2019-06-08T03:10:18.443Z,98249.00
2019-06-08T03:15:43.933Z,98253.00
2019-06-08T03:21:08.906Z,98248.00
2019-06-08T03:26:34.372Z,98254.00
2019-06-08T03:31:59.558Z,98269.00
2019-06-08T03:37:24.708Z,98269.00
2019-06-08T03:42:51.074Z,98286.00
2019-06-08T03:48:16.823Z,98287.00
2019-06-08T03:53:42.602Z,98326.00
2019-06-08T03:59:08.136Z,98359.00
2019-06-08T04:04:34.053Z,98351.00
2019-06-08T04:09:59.168Z,98341.00
2019-06-08T04:15:24.407Z,98355.00
2019-06-08T04:20:51.599Z,98336.00
2019-06-08T04:26:16.918Z,98356.00
2019-06-08T04:31:43.651Z,98347.00
2019-06-08T04:37:09.742Z,98355.00
2019-06-08T04:42:26.912Z,98344.00
2019-06-08T04:47:34.926Z,98367.00
2019-06-08T04:52:49.707Z,98374.00
2019-06-08T04:57:56.647Z,98389.00
2019-06-08T05:03:21.867Z,98384.00
2019-06-08T05:08:47.382Z,98385.00
2019-06-08T05:13:54.363Z,98405.00
2019-06-08T05:19:01.309Z,98415.00
2019-06-08T05:24:09.489Z,98423.00
2019-06-08T05:29:17.076Z,98420.00
2019-06-08T05:34:31.192Z,98421.00
2019-06-08T05:39:39.538Z,98407.00
2019-06-08T05:44:55.825Z,98418.00
2019-06-08T05:50:02.967Z,98429.00
2019-06-08T05:55:28.141Z,98424.00
2019-06-08T06:00:37.688Z,98418.00
2019-06-08T06:05:46.437Z,98420.00
2019-06-08T06:10:55.007Z,98427.00
2019-06-08T06:16:02.646Z,98445.00
2019-06-08T06:21:12.099Z,98448.00
2019-06-08T06:26:37.694Z,98475.00
2019-06-08T06:31:56.152Z,98475.00
2019-06-08T06:37:03.765Z,98492.00
2019-06-08T06:42:24.602Z,98488.00
2019-06-08T06:47:32.924Z,98475.00
2019-06-08T06:52:42.605Z,98472.00
2019-06-08T06:57:51.478Z,98497.00
2019-06-08T07:03:17.834Z,98501.00
2019-06-08T07:08:27.338Z,98509.00
2019-06-08T07:13:34.502Z,98493.00
2019-06-08T07:18:48.361Z,98513.00
2019-06-08T07:23:56.238Z,98524.00
2019-06-08T07:29:21.615Z,98535.00
2019-06-08T07:34:29.704Z,98560.00
2019-06-08T07:39:37.610Z,98571.00
2019-06-08T07:44:44.828Z,98576.00
2019-06-08T07:49:59.818Z,98576.00
2019-06-08T07:55:08.689Z,98576.00
2019-06-08T08:00:34.168Z,98575.00
2019-06-08T08:05:41.387Z,98572.00
2019-06-08T08:10:51.091Z,98585.00
2019-06-08T08:16:00.641Z,98591.00
2019-06-08T08:21:21.829Z,98602.00
2019-06-08T08:26:18.732Z,98599.00
2019-06-08T08:31:43.897Z,98590.00
2019-06-08T08:36:58.152Z,98613.00
2019-06-08T08:42:05.624Z,98631.00
2019-06-08T08:47:31.177Z,98642.00
2019-06-08T08:52:58.941Z,98633.00
2019-06-08T08:58:21.499Z,98622.00
2019-06-08T09:03:48.172Z,98650.00
2019-06-08T09:09:18.805Z,98652.00
2019-06-08T09:14:24.493Z,98662.00
2019-06-08T09:19:31.584Z,98659.00
2019-06-08T09:24:48.589Z,98671.00
2019-06-08T09:29:59.263Z,98670.00
2019-06-08T09:35:05.471Z,98666.00
2019-06-08T09:40:19.569Z,98658.00
2019-06-08T09:45:34.757Z,98668.00
2019-06-08T09:50:42.299Z,98675.00
2019-06-08T09:55:49.680Z,98687.00
2019-06-08T10:01:15.455Z,98687.00
2019-06-08T10:06:42.012Z,98686.00
2019-06-08T10:11:49.164Z,98692.00
2019-06-08T10:17:20.534Z,98692.00
2019-06-08T10:22:24.753Z,98700.00
2019-06-08T10:27:50.084Z,98698.00
2019-06-08T10:33:01.608Z,98692.00
2019-06-08T10:38:12.133Z,98700.00
2019-06-08T10:43:22.919Z,98701.00
2019-06-08T10:48:30.952Z,98693.00
2019-06-08T10:53:48.430Z,98685.00
2019-06-08T10:58:53.169Z,98678.00
2019-06-08T11:04:01.902Z,98674.00
2019-06-08T11:09:13.285Z,98669.00
2019-06-08T11:14:31.636Z,98665.00
2019-06-08T11:19:39.946Z,98674.00
2019-06-08T11:24:48.569Z,98653.00
2019-06-08T11:29:57.568Z,98650.00
2019-06-08T11:35:10.644Z,98650.00
2019-06-08T11:40:33.161Z,98645.00
2019-06-08T11:46:02.544Z,98650.00
2019-06-08T11:51:12.902Z,98656.00
2019-06-08T11:56:27.183Z,98670.00
2019-06-08T12:01:38.589Z,98675.00
2019-06-08T12:06:48.273Z,98689.00
2019-06-08T12:11:54.660Z,98708.00
2019-06-08T12:17:03.047Z,98689.00
2019-06-08T12:22:21.869Z,98713.00
2019-06-08T12:27:36.113Z,98699.00
2019-06-08T12:32:39.201Z,98705.00
2019-06-08T12:37:48.822Z,98687.00
2019-06-08T12:42:59.471Z,98709.00
2019-06-08T12:48:04.519Z,98726.00
2019-06-08T12:53:14.921Z,98728.00
2019-06-08T12:58:22.147Z,98741.00
2019-06-08T13:03:29.925Z,98749.00
2019-06-08T13:08:37.099Z,98744.00
2019-06-08T13:13:44.147Z,98736.00
2019-06-08T13:18:51.329Z,98751.00
2019-06-08T13:23:59.261Z,98756.00
2019-06-08T13:29:09.219Z,98754.00
2019-06-08T13:34:24.143Z,98746.00
2019-06-08T13:39:32.588Z,98740.00
2019-06-08T13:44:44.175Z,98756.00
2019-06-08T13:50:11.015Z,98745.00
2019-06-08T13:55:40.398Z,98754.00
2019-06-08T14:00:49.319Z,98747.00
2019-06-08T14:06:04.767Z,98735.00
2019-06-08T14:11:14.572Z,98745.00
2019-06-08T14:16:33.165Z,98744.00
2019-06-08T14:21:42.169Z,98742.00
2019-06-08T14:27:08.198Z,98750.00
2019-06-08T14:32:19.518Z,98743.00
2019-06-08T14:37:30.286Z,98745.00
2019-06-08T14:42:38.390Z,98751.00
2019-06-08T14:47:47.525Z,98750.00
2019-06-08T14:52:58.939Z,98752.00
2019-06-08T14:58:05.304Z,98746.00
2019-06-08T15:03:13.382Z,98744.00
2019-06-08T15:08:21.592Z,98758.00
2019-06-08T15:13:31.157Z,98748.00
2019-06-08T15:18:38.548Z,98757.00
2019-06-08T15:23:47.678Z,98754.00
2019-06-08T15:28:54.965Z,98757.00
2019-06-08T15:34:04.618Z,98753.00
2019-06-08T15:39:14.146Z,98737.00
2019-06-08T15:44:24.346Z,98751.00
2019-06-08T15:49:32.288Z,98747.00
2019-06-08T15:54:49.068Z,98748.00
2019-06-08T15:59:58.555Z,98751.00
2019-06-08T16:05:21.519Z,98748.00
2019-06-08T16:10:36.101Z,98749.00
2019-06-08T16:16:01.551Z,98746.00
2019-06-08T16:21:20.829Z,98740.00
2019-06-08T16:26:53.277Z,98743.00
2019-06-08T16:32:07.658Z,98747.00
2019-06-08T16:37:33.666Z,98748.00
2019-06-08T16:42:41.575Z,98743.00
2019-06-08T16:48:07.977Z,98744.00
2019-06-08T16:53:16.448Z,98752.00
2019-06-08T16:58:25.227Z,98754.00
2019-06-08T17:03:32.851Z,98759.00
2019-06-08T17:08:44.355Z,98759.00
2019-06-08T17:14:02.221Z,98762.00
2019-06-08T17:19:11.071Z,98755.00
2019-06-08T17:24:30.368Z,98756.00
2019-06-08T17:29:56.057Z,98757.00
2019-06-08T17:35:03.281Z,98763.00
2019-06-08T17:40:13.606Z,98763.00
2019-06-08T17:45:23.334Z,98767.00
2019-06-08T17:50:48.638Z,98777.00
2019-06-08T17:56:08.832Z,98788.00
2019-06-08T18:01:17.012Z,98784.00
2019-06-08T18:06:29.199Z,98786.00
2019-06-08T18:11:41.941Z,98805.00
2019-06-08T18:16:49.235Z,98801.00
2019-06-08T18:22:14.508Z,98805.00
2019-06-08T18:27:39.169Z,98802.00
2019-06-08T18:32:48.560Z,98809.00
2019-06-08T18:37:58.038Z,98810.00
2019-06-08T18:43:07.740Z,98832.00
2019-06-08T18:48:30.965Z,98841.00
2019-06-08T18:54:01.776Z,98839.00
2019-06-08T18:58:58.302Z,98840.00
2019-06-08T19:04:24.230Z,98848.00
2019-06-08T19:09:37.504Z,98852.00
2019-06-08T19:14:55.675Z,98860.00
2019-06-08T19:20:08.310Z,98857.00
2019-06-08T19:25:18.877Z,98876.00
2019-06-08T19:30:28.136Z,98888.00
2019-06-08T19:35:54.187Z,98893.00
2019-06-08T19:41:03.492Z,98900.00
2019-06-08T19:46:12.189Z,98906.00
2019-06-08T19:51:24.863Z,98905.00
2019-06-08T19:56:32.904Z,98915.00
2019-06-08T20:01:51.385Z,98903.00
2019-06-08T20:07:02.450Z,98919.00
2019-06-08T20:12:11.086Z,98928.00
2019-06-08T20:17:19.392Z,98930.00
2019-06-08T20:22:31.017Z,98934.00
2019-06-08T20:27:58.730Z,98932.00
2019-06-08T20:33:23.717Z,98938.00
2019-06-08T20:38:41.650Z,98939.00
2019-06-08T20:43:49.106Z,98934.00
2019-06-08T20:48:57.688Z,98932.00
2019-06-08T20:54:17.237Z,98935.00
2019-06-08T20:59:30.977Z,98924.00
2019-06-08T21:04:38.202Z,98929.00
2019-06-08T21:09:51.154Z,98930.00
2019-06-08T21:15:08.079Z,98933.00
2019-06-08T21:20:17.698Z,98937.00
2019-06-08T21:25:28.121Z,98947.00
2019-06-08T21:30:37.524Z,98937.00
2019-06-08T21:36:04.943Z,98935.00
2019-06-08T21:41:30.798Z,98931.00
2019-06-08T21:46:39.461Z,98933.00
2019-06-08T21:51:48.778Z,98933.00
2019-06-08T21:57:06.605Z,98944.00
2019-06-08T22:02:16.712Z,98960.00
2019-06-08T22:07:38.456Z,98949.00
2019-06-08T22:12:52.394Z,98959.00
2019-06-08T22:18:04.174Z,98963.00
2019-06-08T22:23:29.797Z,98966.00
2019-06-08T22:28:38.317Z,98968.00
2019-06-08T22:33:48.165Z,98976.00
2019-06-08T22:39:07.871Z,98984.00
2019-06-08T22:44:20.842Z,98992.00
2019-06-08T23:09:22.581Z,98997.00
2019-06-08T23:14:48.274Z,98995.00
2019-06-08T23:20:13.942Z,98999.00
2019-06-08T23:25:27.902Z,98991.00
2019-06-08T23:31:05.810Z,99002.00
2019-06-08T23:36:45.442Z,98993.00
2019-06-08T23:41:48.369Z,98987.00
2019-06-08T23:47:14.774Z,98990.00
2019-06-08T23:52:39.971Z,98995.00
2019-06-08T23:58:09.841Z,99001.00
